ADDS METAR Data INFO
IDs: Format: Raw Decoded Include TAF

Data at: 2219 UTC 24 Jun 2018

KAXV 242215Z AUTO 33009G14KT 10SM BKN048 BKN060 27/17 A2997 RMK AO2
KAXV 242155Z AUTO 31006KT 10SM SCT048 27/17 A2998 RMK AO2
KAXV 242135Z AUTO 30008KT 10SM SCT050 27/17 A2997 RMK AO2
KAXV 242115Z AUTO 27008KT 10SM SCT050 27/17 A2997 RMK AO2
KAXV 242055Z AUTO 26010KT 10SM CLR 27/17 A2996 RMK AO2
KAXV 242035Z AUTO 26010G15KT 230V290 10SM CLR 27/16 A2997 RMK AO2
KAXV 242015Z AUTO 29008G15KT 250V310 10SM CLR 27/16 A2998 RMK AO2
KAXV 241955Z AUTO 26011KT 10SM CLR 27/16 A2998 RMK AO2
KAXV 241935Z AUTO 26008G14KT 10SM CLR 27/17 A2997 RMK AO2
KAXV 241915Z AUTO 30009KT 10SM CLR 27/16 A2996 RMK AO2
KAXV 241855Z AUTO 26009KT 10SM SCT045 SCT050 SCT080 27/16 A2997 RMK AO2
KAXV 241835Z AUTO 27008KT 10SM SCT045 SCT080 27/16 A2997 RMK AO2
KAXV 241815Z AUTO 27008KT 7SM CLR 27/17 A2997 RMK AO2
KAXV 241755Z AUTO 27010KT 10SM SCT039 SCT048 SCT050 26/17 A2996 RMK AO2
KAXV 241735Z AUTO 25011G17KT 10SM SCT037 SCT050 SCT065 26/17 A2995 RMK AO2
KAXV 241715Z AUTO 29008KT 250V310 10SM SCT035 SCT046 SCT055 26/18 A2995 RMK AO2
KAXV 241655Z AUTO 25008KT 10SM SCT033 SCT046 SCT055 26/19 A2995 RMK AO2
KAXV 241635Z AUTO 27011G17KT 10SM SCT033 SCT045 SCT050 25/19 A2995 RMK AO2
KAXV 241615Z AUTO 27007KT 10SM SCT029 SCT042 25/20 A2995 RMK AO2
KAXV 241555Z AUTO 27010G14KT 10SM CLR 25/20 A2996 RMK AO2
KAXV 241535Z AUTO 27007G15KT 10SM CLR 24/18 A2995 RMK AO2
KAXV 241515Z AUTO 25009G14KT 10SM CLR 24/19 A2995 RMK AO2
KAXV 241455Z AUTO 30007KT 240V330 10SM SCT022 23/20 A2994 RMK AO2
KAXV 241435Z AUTO 29006KT 10SM SCT020 23/20 A2993 RMK AO2
KAXV 241415Z AUTO 27004KT 10SM SCT016 SCT100 23/21 A2992 RMK AO2
KAXV 241355Z AUTO 28007KT 10SM SCT014 SCT100 22/21 A2992 RMK AO2
KAXV 241335Z AUTO 24008KT 10SM SCT012 22/21 A2991 RMK AO2
KAXV 241315Z AUTO 25007KT 10SM SCT012 SCT080 21/21 A2990 RMK AO2
KAXV 241255Z AUTO 24005KT 10SM SCT008 SCT080 SCT100 21/21 A2989 RMK AO2
KAXV 241235Z AUTO 23006KT 10SM SCT080 BKN100 20/20 A2990 RMK AO2
KAXV 241215Z AUTO 24004KT 10SM OVC080 20/20 A2990 RMK AO2
KAXV 241155Z AUTO 23004KT 10SM OVC070 20/20 A2990 RMK AO2
KAXV 241135Z AUTO 25004KT 10SM BKN070 OVC095 19/19 A2990 RMK AO2
KAXV 241115Z AUTO 23005KT 10SM BKN095 18/18 A2990 RMK AO2
KAXV 241055Z AUTO 23003KT 10SM OVC085 18/18 A2989 RMK AO2
KAXV 241035Z AUTO 23003KT 10SM SCT070 OVC085 18/18 A2988 RMK AO2
KAXV 241015Z AUTO 23003KT 10SM SCT070 OVC085 18/18 A2988 RMK AO2
KAXV 240955Z AUTO 00000KT 10SM SCT055 OVC085 18/18 A2987 RMK AO2
KAXV 240935Z AUTO 00000KT 10SM BKN055 BKN085 18/18 A2987 RMK AO2
KAXV 240915Z AUTO 00000KT 10SM BKN055 OVC085 18/18 A2987 RMK AO2
KAXV 240855Z AUTO 23003KT 10SM BKN085 18/18 A2986 RMK AO2
KAXV 240835Z AUTO 23005KT 10SM SCT050 BKN085 18/18 A2986 RMK AO2
KAXV 240815Z AUTO 25004KT 10SM BKN050 BKN060 OVC085 19/19 A2986 RMK AO2
KAXV 240755Z AUTO 00000KT 10SM SCT060 BKN085 18/18 A2986 RMK AO2
KAXV 240735Z AUTO 24003KT 10SM OVC085 19/19 A2985 RMK AO2
KAXV 240715Z AUTO 24003KT 10SM OVC085 19/19 A2985 RMK AO2
KAXV 240655Z AUTO 25003KT 10SM SCT075 OVC085 19/19 A2985 RMK AO2
KAXV 240635Z AUTO 24004KT 10SM SCT042 OVC080 19/19 A2985 RMK AO2
KAXV 240615Z AUTO 23004KT 10SM SCT044 OVC070 19/19 A2985 RMK AO2
KAXV 240555Z AUTO 21005KT 10SM BKN070 19/19 A2985 RMK AO2
KAXV 240535Z AUTO 24004KT 10SM SCT070 20/20 A2984 RMK AO2
KAXV 240515Z AUTO 25005KT 10SM SCT035 SCT043 OVC070 20/20 A2985 RMK AO2
KAXV 240455Z AUTO 25006KT 10SM BKN035 BKN043 OVC070 20/20 A2984 RMK AO2
KAXV 240435Z AUTO 23004KT 10SM SCT043 OVC070 20/20 A2983 RMK AO2
KAXV 240415Z AUTO 23005KT 10SM SCT049 BKN070 20/20 A2983 RMK AO2
KAXV 240355Z AUTO 24005KT 10SM SCT035 BKN047 20/20 A2983 RMK AO2
KAXV 240335Z AUTO 23007KT 10SM SCT047 SCT075 20/20 A2983 RMK AO2
KAXV 240315Z AUTO 24005KT 10SM BKN075 21/20 A2983 RMK AO2
KAXV 240255Z AUTO 23005KT 10SM SCT030 BKN037 OVC075 21/21 A2983 RMK AO2
KAXV 240235Z AUTO 22004KT 10SM BKN033 BKN038 OVC075 21/21 A2982 RMK AO2
KAXV 240215Z AUTO 23004KT 10SM SCT033 OVC075 21/21 A2982 RMK AO2
KAXV 240155Z AUTO 24003KT 7SM OVC065 21/20 A2981 RMK AO2
KAXV 240135Z AUTO 23004KT 10SM OVC065 21/20 A2981 RMK AO2
KAXV 240115Z AUTO 25004KT 10SM SCT029 OVC070 22/20 A2981 RMK AO2
KAXV 240055Z AUTO 26005KT 10SM SCT029 OVC070 22/19 A2981 RMK AO2
KAXV 240035Z AUTO 24008KT 10SM SCT034 OVC060 22/20 A2981 RMK AO2
KAXV 240015Z AUTO 25006KT 10SM BKN034 OVC070 22/20 A2980 RMK AO2
KAXV 232355Z AUTO 27005KT 10SM SCT035 OVC070 23/20 A2980 RMK AO2
KAXV 232335Z AUTO 27007KT 10SM SCT034 OVC070 23/19 A2980 RMK AO2
KAXV 232315Z AUTO 27007KT 10SM SCT034 SCT060 OVC070 23/20 A2979 RMK AO2
KAXV 232255Z AUTO 27006KT 10SM SCT034 OVC070 23/20 A2979 RMK AO2
KAXV 232235Z AUTO 24008KT 10SM SCT032 SCT038 BKN070 24/20 A2979 RMK AO2
KAXV 232215Z AUTO 24009KT 7SM SCT032 SCT070 25/20 A2979 RMK AO2
KAXV 232155Z AUTO 27011G16KT 10SM SCT070 24/19 A2979 RMK AO2
KAXV 232135Z AUTO 25013G17KT 10SM OVC060 24/20 A2978 RMK AO2
KAXV 232115Z AUTO 24011G15KT 10SM SCT033 SCT041 OVC060 23/20 A2978 RMK AO2
KAXV 232055Z AUTO 23013G19KT 10SM BKN033 BKN043 OVC060 23/20 A2978 RMK AO2
KAXV 232035Z AUTO 24009G14KT 10SM SCT031 SCT043 BKN060 25/20 A2977 RMK AO2
KAXV 232015Z AUTO 27009KT 7SM SCT031 SCT041 OVC060 25/20 A2978 RMK AO2
KAXV 231955Z AUTO 26012KT 10SM SCT029 SCT035 BKN043 25/20 A2977 RMK AO2
KAXV 231935Z AUTO 25011KT 7SM SCT031 SCT043 BKN070 25/20 A2977 RMK AO2
KAXV 231915Z AUTO 24013G17KT 10SM BKN025 BKN035 BKN070 25/20 A2977 RMK AO2
KAXV 231855Z AUTO 26008G15KT 7SM BKN025 BKN029 OVC070 23/20 A2977 RMK AO2
KAXV 231835Z AUTO 25013KT 10SM SCT024 SCT030 OVC065 23/20 A2977 RMK AO2
KAXV 231815Z AUTO 25009KT 7SM BKN050 OVC065 22/20 A2977 RMK AO2
KAXV 231755Z AUTO 26013G17KT 7SM SCT042 BKN050 BKN060 23/21 A2977 RMK AO2
KAXV 231735Z AUTO 25011G17KT 10SM SCT019 BKN046 BKN060 23/21 A2977 RMK AO2
KAXV 231715Z AUTO 24013KT 10SM SCT017 SCT027 BKN045 23/21 A2977 RMK AO2
KAXV 231655Z AUTO 24013G17KT 10SM SCT017 BKN028 OVC044 22/21 A2977 RMK AO2
KAXV 231635Z AUTO 24011KT 7SM BKN017 BKN023 OVC033 21/21 A2977 RMK AO2
KAXV 231615Z AUTO 26009G16KT 10SM SCT015 BKN023 OVC039 22/20 A2978 RMK AO2
KAXV 231555Z AUTO 25012G15KT 10SM -RA SCT015 BKN019 OVC033 21/21 A2977 RMK AO2
KAXV 231535Z AUTO 24013G17KT 10SM SCT013 SCT022 OVC032 22/21 A2977 RMK AO2
KAXV 231515Z AUTO 25009KT 7SM SCT013 BKN024 OVC032 22/21 A2976 RMK AO2
KAXV 231455Z AUTO 24009G17KT 10SM BKN011 BKN017 OVC024 21/21 A2976 RMK AO2
KAXV 231435Z AUTO 24014G18KT 10SM OVC011 21/21 A2976 RMK AO2
KAXV 231415Z AUTO 24011KT 10SM OVC013 20/20 A2975 RMK AO2
KAXV 231355Z AUTO 24012G15KT 10SM BKN013 OVC018 21/21 A2975 RMK AO2
KAXV 231335Z AUTO 23014KT 10SM OVC013 20/20 A2975 RMK AO2
KAXV 231315Z AUTO 23010KT 10SM OVC011 20/20 A2974 RMK AO2
KAXV 231255Z AUTO 23009KT 10SM BKN011 BKN017 OVC029 20/20 A2974 RMK AO2
KAXV 231235Z AUTO 22009G15KT 10SM BKN011 BKN015 OVC023 20/20 A2975 RMK AO2 LTG DSNT NE
KAXV 231215Z AUTO 21010G14KT 10SM SCT011 OVC023 20/20 A2974 RMK AO2
KAXV 231155Z AUTO 22010KT 10SM BKN009 OVC024 19/19 A2974 RMK AO2
KAXV 231135Z AUTO 21008KT 10SM SCT011 BKN022 BKN027 19/19 A2974 RMK AO2
KAXV 231115Z AUTO 22008KT 10SM SCT009 BKN027 19/19 A2973 RMK AO2
KAXV 231055Z AUTO 23008KT 10SM SCT011 SCT020 OVC027 19/19 A2972 RMK AO2
KAXV 231035Z AUTO 22007KT 10SM OVC019 19/19 A2972 RMK AO2